createdAt,value
2023-03-22T00:01:36.654Z,7.28
2023-03-22T00:04:03.500Z,7.03
2023-03-22T00:06:30.026Z,7.47
2023-03-22T00:08:56.920Z,7.07
2023-03-22T00:11:26.763Z,7.93
2023-03-22T00:13:53.722Z,7.72
2023-03-22T00:16:21.147Z,6.72
2023-03-22T00:18:47.620Z,5.47
2023-03-22T00:21:15.773Z,6.53
2023-03-22T00:23:42.796Z,5.90
2023-03-22T00:26:10.729Z,6.47
2023-03-22T00:28:37.326Z,6.03
2023-03-22T00:31:04.812Z,6.30
2023-03-22T00:33:32.901Z,7.95
2023-03-22T00:36:02.403Z,6.40
2023-03-22T00:38:42.366Z,7.00
2023-03-22T00:41:16.203Z,6.60
2023-03-22T00:43:43.137Z,5.10
2023-03-22T00:46:11.202Z,6.85
2023-03-22T00:48:38.105Z,5.82
2023-03-22T00:51:05.476Z,6.30
2023-03-22T00:53:36.493Z,6.18
2023-03-22T00:56:04.398Z,5.93
2023-03-22T00:58:31.336Z,5.22
2023-03-22T01:00:57.962Z,6.72
2023-03-22T01:03:24.780Z,9.57
2023-03-22T01:05:56.414Z,5.95
2023-03-22T01:08:23.954Z,7.90
2023-03-22T01:10:51.198Z,5.85
2023-03-22T01:13:18.184Z,7.50
2023-03-22T01:15:44.943Z,7.20
2023-03-22T01:18:11.489Z,6.47
2023-03-22T01:20:38.368Z,8.43
2023-03-22T01:23:05.128Z,6.38
2023-03-22T01:25:31.569Z,6.88
2023-03-22T01:27:57.990Z,6.32
2023-03-22T01:30:24.736Z,6.40
2023-03-22T01:32:51.328Z,4.93
2023-03-22T01:35:17.965Z,6.15
2023-03-22T01:37:44.426Z,6.97
2023-03-22T01:40:12.882Z,6.68
2023-03-22T01:42:39.368Z,6.05
2023-03-22T01:45:14.912Z,5.93
2023-03-22T01:47:46.463Z,6.88
2023-03-22T01:50:13.436Z,6.80
2023-03-22T01:52:41.180Z,6.85
2023-03-22T01:55:09.375Z,6.78
2023-03-22T01:57:39.293Z,6.90
2023-03-22T02:00:10.846Z,5.88
2023-03-22T02:02:37.448Z,6.82
2023-03-22T02:05:05.336Z,6.75
2023-03-22T02:07:32.164Z,6.85
2023-03-22T02:09:59.323Z,6.20
2023-03-22T02:12:42.473Z,6.68
2023-03-22T02:15:24.874Z,6.03
2023-03-22T02:18:27.693Z,7.03
2023-03-22T02:21:12.124Z,5.45
2023-03-22T02:23:48.604Z,7.40
2023-03-22T02:26:33.317Z,7.18
2023-03-22T02:29:12.643Z,8.85
2023-03-22T02:32:03.788Z,6.80
2023-03-22T02:34:43.741Z,6.40
2023-03-22T02:37:28.312Z,5.78
2023-03-22T02:40:05.520Z,7.30
2023-03-22T02:43:00.184Z,7.25
2023-03-22T02:45:41.804Z,7.32
2023-03-22T02:48:19.862Z,7.85
2023-03-22T02:51:07.254Z,7.20
2023-03-22T02:53:46.415Z,6.18
2023-03-22T02:56:41.295Z,7.28
2023-03-22T02:59:11.467Z,7.88
2023-03-22T03:01:46.321Z,7.20
2023-03-22T03:04:28.471Z,6.97
2023-03-22T03:07:01.847Z,6.78
2023-03-22T03:09:29.820Z,6.75
2023-03-22T03:11:56.354Z,8.13
2023-03-22T03:14:32.699Z,7.40
2023-03-22T03:17:37.674Z,7.97
2023-03-22T03:20:12.384Z,8.52
2023-03-22T03:22:53.950Z,7.47
2023-03-22T03:25:44.858Z,8.20
2023-03-22T03:28:22.880Z,7.50
2023-03-22T03:31:01.063Z,5.95
2023-03-22T03:33:28.119Z,6.18
2023-03-22T03:36:03.830Z,6.15
2023-03-22T03:38:34.391Z,5.88
2023-03-22T03:41:04.400Z,6.10
2023-03-22T03:43:33.277Z,5.60
2023-03-22T03:46:00.614Z,4.82
2023-03-22T03:48:33.180Z,7.00
2023-03-22T03:51:01.912Z,6.30
2023-03-22T03:53:29.231Z,7.38
2023-03-22T03:55:56.010Z,6.30
2023-03-22T03:58:22.702Z,7.40
2023-03-22T04:00:50.223Z,7.45
2023-03-22T04:03:17.167Z,6.38
2023-03-22T04:05:44.044Z,6.28
2023-03-22T04:08:10.642Z,6.55
2023-03-22T04:10:37.276Z,6.65
2023-03-22T04:13:04.017Z,7.03
2023-03-22T04:15:30.592Z,5.70
2023-03-22T04:17:57.171Z,6.30
2023-03-22T04:20:26.148Z,6.57
2023-03-22T04:22:52.717Z,6.97
2023-03-22T04:25:19.221Z,6.38
2023-03-22T04:27:50.943Z,6.18
2023-03-22T04:32:50.024Z,6.25
2023-03-22T04:35:16.987Z,7.65
2023-03-22T04:37:43.662Z,6.72
2023-03-22T04:40:17.240Z,9.15
2023-03-22T04:42:45.543Z,10.73
2023-03-22T04:45:13.156Z,10.63
2023-03-22T04:47:39.754Z,8.20
2023-03-22T04:50:07.971Z,10.35
2023-03-22T04:52:34.456Z,8.43
2023-03-22T04:55:00.944Z,8.35
2023-03-22T04:57:27.364Z,11.00
2023-03-22T04:59:53.870Z,8.25
2023-03-22T05:02:20.395Z,10.20
2023-03-22T05:04:46.989Z,8.35
2023-03-22T05:07:13.420Z,7.60
2023-03-22T05:09:39.951Z,6.82
2023-03-22T05:12:06.889Z,7.25
2023-03-22T05:14:33.459Z,6.70
2023-03-22T05:16:59.939Z,7.32
2023-03-22T05:19:26.526Z,6.68
2023-03-22T05:21:58.709Z,8.50
2023-03-22T05:24:25.300Z,17.98
2023-03-22T05:26:54.533Z,7.57
2023-03-22T05:29:21.491Z,8.95
2023-03-22T05:31:48.391Z,9.27
2023-03-22T05:34:14.838Z,10.27
2023-03-22T05:36:41.250Z,7.68
2023-03-22T05:39:08.074Z,7.80
2023-03-22T05:41:36.543Z,7.63
2023-03-22T05:44:03.579Z,6.47
2023-03-22T05:46:30.115Z,7.50
2023-03-22T05:48:56.605Z,5.72
2023-03-22T05:51:25.930Z,5.85
2023-03-22T05:53:53.581Z,6.20
2023-03-22T05:56:24.129Z,5.75
2023-03-22T05:58:51.730Z,6.30
2023-03-22T06:01:20.424Z,7.03
2023-03-22T06:03:48.470Z,6.80
2023-03-22T06:06:15.770Z,6.07
2023-03-22T06:08:42.680Z,6.22
2023-03-22T06:11:09.943Z,6.05
2023-03-22T06:13:37.498Z,5.93
2023-03-22T06:16:05.595Z,6.60
2023-03-22T06:18:33.013Z,6.80
2023-03-22T06:21:00.219Z,6.05
2023-03-22T06:23:26.851Z,6.18
2023-03-22T06:25:53.341Z,6.80
2023-03-22T06:28:19.835Z,6.32
2023-03-22T06:30:46.239Z,7.10
2023-03-22T06:33:13.269Z,6.50
2023-03-22T06:35:39.789Z,6.15
2023-03-22T06:38:06.499Z,6.75
2023-03-22T06:40:32.964Z,7.82
2023-03-22T06:43:03.537Z,6.53
2023-03-22T06:45:33.409Z,8.18
2023-03-22T06:48:00.937Z,7.63
2023-03-22T06:50:28.742Z,6.97
2023-03-22T06:52:55.213Z,6.63
2023-03-22T06:55:22.371Z,9.80
2023-03-22T06:57:48.883Z,10.88
2023-03-22T07:00:16.004Z,10.43
2023-03-22T07:02:42.441Z,10.23
2023-03-22T07:05:09.442Z,16.17
2023-03-22T07:07:35.998Z,15.00
2023-03-22T07:10:02.437Z,16.38
2023-03-22T07:12:28.894Z,12.10
2023-03-22T07:14:55.613Z,10.77
2023-03-22T07:17:22.040Z,28.58
2023-03-22T07:19:48.882Z,14.90
2023-03-22T07:22:15.499Z,13.68
2023-03-22T07:24:53.842Z,40.03
2023-03-22T07:27:23.130Z,28.27
2023-03-22T07:29:49.612Z,16.15
2023-03-22T07:32:16.392Z,11.45
2023-03-22T07:34:44.194Z,12.25
2023-03-22T07:37:10.782Z,11.23
2023-03-22T07:39:37.327Z,11.32
2023-03-22T07:42:04.070Z,14.18
2023-03-22T07:44:30.899Z,12.63
2023-03-22T07:46:57.757Z,13.05
2023-03-22T07:49:24.360Z,10.43
2023-03-22T07:51:50.941Z,10.10
2023-03-22T07:54:32.421Z,9.55
2023-03-22T07:57:01.091Z,10.45
2023-03-22T07:59:27.552Z,9.25
2023-03-22T08:01:54.058Z,9.73
2023-03-22T08:04:22.502Z,10.20
2023-03-22T08:06:49.812Z,8.75
2023-03-22T08:09:17.028Z,8.05
2023-03-22T08:11:43.871Z,8.93
2023-03-22T08:14:10.367Z,8.43
2023-03-22T08:16:38.339Z,9.23
2023-03-22T08:19:04.853Z,9.63
2023-03-22T08:21:31.370Z,8.50
2023-03-22T08:23:57.845Z,8.18
2023-03-22T08:26:24.403Z,8.45
2023-03-22T08:28:50.835Z,9.25
2023-03-22T08:31:18.281Z,9.27
2023-03-22T08:33:45.198Z,8.68
2023-03-22T08:36:15.101Z,8.30
2023-03-22T08:38:42.519Z,11.43
2023-03-22T08:41:09.014Z,7.78
2023-03-22T08:43:35.412Z,7.93
2023-03-22T08:46:02.033Z,12.38
2023-03-22T08:48:31.830Z,8.73
2023-03-22T08:50:58.518Z,8.27
2023-03-22T08:53:24.978Z,8.90
2023-03-22T08:55:51.536Z,8.10
2023-03-22T08:58:19.979Z,9.20
2023-03-22T09:00:49.452Z,10.00
2023-03-22T09:03:16.825Z,8.75
2023-03-22T09:05:44.700Z,7.97
2023-03-22T09:08:18.646Z,9.45
2023-03-22T09:10:52.573Z,8.73
2023-03-22T09:13:19.758Z,5.68
2023-03-22T09:15:47.093Z,8.07
2023-03-22T09:18:14.268Z,8.68
2023-03-22T09:20:40.966Z,7.10
2023-03-22T09:23:07.720Z,7.75
2023-03-22T09:25:34.313Z,7.57
2023-03-22T09:28:00.930Z,7.03
2023-03-22T09:30:27.435Z,8.10
2023-03-22T09:32:54.464Z,7.80
2023-03-22T09:35:21.046Z,8.85
2023-03-22T09:37:49.317Z,6.90
2023-03-22T09:40:17.504Z,8.63
2023-03-22T09:42:48.238Z,8.27
2023-03-22T09:45:30.511Z,7.38
2023-03-22T09:47:59.507Z,5.40
2023-03-22T09:50:30.382Z,7.07
2023-03-22T09:52:57.437Z,7.20
2023-03-22T09:55:32.086Z,5.75
2023-03-22T09:58:01.598Z,5.63
2023-03-22T10:00:36.930Z,4.43
2023-03-22T10:03:25.512Z,6.30
2023-03-22T10:06:19.821Z,5.72
2023-03-22T10:09:14.267Z,6.22
2023-03-22T10:11:52.368Z,4.90
2023-03-22T10:14:35.797Z,4.55
2023-03-22T10:17:06.981Z,5.40
2023-03-22T10:19:41.576Z,5.25
2023-03-22T10:22:14.824Z,5.00
2023-03-22T10:24:45.410Z,5.75
2023-03-22T10:27:17.089Z,3.87
2023-03-22T10:29:51.678Z,5.40
2023-03-22T10:32:22.511Z,4.65
2023-03-22T10:34:49.466Z,4.40
2023-03-22T10:37:33.369Z,5.93
2023-03-22T10:40:06.250Z,7.30
2023-03-22T10:42:36.837Z,4.13
2023-03-22T10:45:14.483Z,5.47
2023-03-22T10:47:50.204Z,6.85
2023-03-22T10:50:28.445Z,5.78
2023-03-22T10:53:07.361Z,4.60
2023-03-22T10:55:40.029Z,5.43
2023-03-22T10:58:16.833Z,6.50
2023-03-22T11:00:54.629Z,8.07
2023-03-22T11:03:31.545Z,5.95
2023-03-22T11:06:08.073Z,6.22
2023-03-22T11:08:53.264Z,5.63
2023-03-22T11:11:24.801Z,6.03
2023-03-22T11:14:06.819Z,6.28
2023-03-22T11:16:54.917Z,5.97
2023-03-22T11:19:50.111Z,6.18
2023-03-22T11:22:34.876Z,6.47
2023-03-22T11:25:02.533Z,4.70
2023-03-22T11:27:33.034Z,5.70
2023-03-22T11:30:24.321Z,5.77
2023-03-22T11:33:14.370Z,4.43
2023-03-22T11:35:46.428Z,6.30
2023-03-22T11:38:44.861Z,4.10
2023-03-22T11:41:27.879Z,6.10
2023-03-22T11:46:23.539Z,6.60
2023-03-22T11:48:52.546Z,5.63
2023-03-22T11:51:29.742Z,5.32
2023-03-22T11:54:20.660Z,5.32
2023-03-22T11:56:48.942Z,4.93
2023-03-22T11:59:17.117Z,4.07
2023-03-22T12:01:49.618Z,5.35
2023-03-22T12:04:20.824Z,6.13
2023-03-22T12:06:48.558Z,4.10
2023-03-22T12:09:37.097Z,4.70
2023-03-22T12:12:06.681Z,5.28
2023-03-22T12:14:49.674Z,4.95
2023-03-22T12:17:40.843Z,5.07
2023-03-22T12:20:14.456Z,6.43
2023-03-22T12:22:45.761Z,5.20
2023-03-22T12:25:17.699Z,5.05
2023-03-22T12:27:48.258Z,3.55
2023-03-22T12:30:26.778Z,5.45
2023-03-22T12:33:20.664Z,3.80
2023-03-22T12:35:48.612Z,3.65
2023-03-22T12:38:39.317Z,4.13
2023-03-22T12:41:11.357Z,4.30
2023-03-22T12:43:40.816Z,4.28
2023-03-22T12:46:16.731Z,4.30
2023-03-22T12:48:47.670Z,3.80
2023-03-22T12:51:14.904Z,4.55
2023-03-22T12:54:02.073Z,5.32
2023-03-22T12:56:50.623Z,3.50
2023-03-22T12:59:20.582Z,3.05
2023-03-22T13:02:01.183Z,6.22
2023-03-22T13:04:31.697Z,4.33
2023-03-22T13:07:19.543Z,2.93
2023-03-22T13:09:50.678Z,4.75
2023-03-22T13:12:17.039Z,4.72
2023-03-22T13:14:52.598Z,5.20
2023-03-22T13:17:25.480Z,5.47
2023-03-22T13:20:07.999Z,5.72
2023-03-22T13:22:37.741Z,4.13
2023-03-22T13:25:13.439Z,6.05
2023-03-22T13:27:46.392Z,4.30
2023-03-22T13:30:32.457Z,4.13
2023-03-22T13:33:08.492Z,4.38
2023-03-22T13:35:52.578Z,3.85
2023-03-22T13:38:28.388Z,4.45
2023-03-22T13:41:09.555Z,3.85
2023-03-22T13:43:39.023Z,3.72
2023-03-22T13:46:17.520Z,4.57
2023-03-22T13:48:52.240Z,4.35
2023-03-22T13:51:21.890Z,3.15
2023-03-22T13:54:24.007Z,4.05
2023-03-22T13:57:01.004Z,3.88
2023-03-22T13:59:27.744Z,6.38
2023-03-22T14:02:22.155Z,3.95
2023-03-22T14:04:50.228Z,4.80
2023-03-22T14:07:26.521Z,4.53
2023-03-22T14:09:57.627Z,5.65
2023-03-22T14:12:28.420Z,5.50
2023-03-22T14:15:03.660Z,3.45
2023-03-22T14:17:35.679Z,3.90
2023-03-22T14:20:10.223Z,4.22
